NCAR-RAP Real-Time Weather Data

Output produced by METARs form (10 April 2020  07:25 UTC)
found at http://weather.rap.ucar.edu/surface/
 
KSPI 100652Z 30008KT 10SM CLR 02/M07 A3009 RMK AO2 SLP193 T00171067
KSPI 100552Z 32011KT 10SM CLR 02/M07 A3008 RMK AO2 SLP187 T00221072 10072 20022 401440022 53018
KSPI 100452Z 31014KT 10SM CLR 03/M09 A3006 RMK AO2 SLP180 T00281089
KSPI 100352Z 32015G24KT 10SM CLR 03/M09 A3004 RMK AO2 PK WND 33031/0336 SLP174 T00331094
KSPI 100252Z 32017G26KT 10SM CLR 04/M08 A3002 RMK AO2 PK WND 31035/0208 SLP170 T00391083 51032
KSPI 100152Z 32017G35KT 10SM CLR 05/M09 A3000 RMK AO2 PK WND 34035/0151 SLP160 T00501089
KSPI 100052Z 32017G36KT 10SM CLR 06/M08 A2996 RMK AO2 PK WND 31036/0021 SLP148 T00561078
KSPI 092352Z 32026G36KT 10SM FEW090 07/M06 A2993 RMK AO2 PK WND 30039/2341 SLP137 T00721056 10144 20072 53026
KSPI 092252Z 33022G34KT 10SM BKN075 OVC085 09/M02 A2989 RMK AO2 PK WND 33040/2215 SLP125 T00891022
KSPI 092152Z 30016G30KT 10SM FEW075 SCT090 SCT100 11/M07 A2985 RMK AO2 PK WND 31036/2134 SLP109 T01111072
KSPI 092052Z 31018G34KT 10SM BKN090 12/M07 A2985 RMK AO2 PK WND 30036/2017 SLP109 T01171067 55014
KSPI 091952Z 29025G33KT 10SM BKN090 13/M07 A2985 RMK AO2 PK WND 27037/1941 SLP108 T01281067
KSPI 091852Z 26021G28KT 10SM SCT075 BKN090 13/M04 A2986 RMK AO2 PK WND 29032/1822 SLP114 T01281039
KSPI 091752Z 30017G31KT 10SM SCT075 BKN090 12/M04 A2989 RMK AO2 PK WND 27031/1749 SLP122 T01221039 10122 20056 58020
KSPI 091652Z 30018G29KT 10SM FEW075 11/M04 A2992 RMK AO2 PK WND 28030/1630 SLP131 T01111039
KSPI 091552Z 27017G22KT 10SM CLR 10/M03 A2994 RMK AO2 SLP140 T01001028
KSPI 091452Z 30010KT 10SM CLR 09/M02 A2995 RMK AO2 SLP143 T00891022 51004
KSPI 091352Z 33016G23KT 10SM CLR 08/M03 A2995 RMK AO2 SLP142 T00781028
KSPI 091252Z 33010KT 10SM CLR 07/M01 A2994 RMK AO2 SLP140 T00671011
KSPI 091152Z 32011KT 10SM CLR 06/M02 A2994 RMK AO2 SLP138 70023 T00561017 10094 20056 51009
KSPI 091052Z 32008KT 10SM CLR 06/M01 A2993 RMK AO2 SLP136 T00611011
KSPI 090952Z AUTO 30007KT 10SM CLR 06/00 A2993 RMK AO2 SLP132 T00560000
KSPI 090852Z AUTO 31007KT 10SM CLR 07/00 A2991 RMK AO2 SLP125 T00670000 50013